Time;durP1;ratioP1;P1;durP2;ratioP2;P2;SDS_P1;SDS_P2;PMS_P1;PMS_P2;Temp;Humidity;BMP_temperature;BMP_pressure;BME280_temperature;BME280_humidity;BME280_pressure;Samples;Min_cycle;Max_cycle;Signal;HPM_P1;HPM_P2
2022/09/26 00:00:30;;;;;;;;;;;12.10;99.90;;;;;;4880058;29;19911;-71
2022/09/26 00:02:55;;;;;;;;;;;12.10;99.90;;;;;;4888316;29;19912;-71
2022/09/26 00:05:21;;;;;;;;;;;12.10;99.90;;;;;;4882362;29;20204;-71
2022/09/26 00:07:47;;;;;;;;;;;12.10;99.90;;;;;;4869358;29;19920;-71
2022/09/26 00:10:12;;;;;;;;;;;12.10;99.90;;;;;;4872330;29;19912;-71
2022/09/26 00:12:38;;;;;;;;;;;12.00;99.90;;;;;;4873213;29;19912;-70
2022/09/26 00:15:04;;;;;;;;;;;12.00;99.90;;;;;;4873244;29;20001;-71
2022/09/26 00:17:29;;;;;;;;;;;12.00;99.90;;;;;;4872779;29;19912;-71
2022/09/26 00:19:55;;;;;;;;;;;12.00;99.90;;;;;;4872728;29;20215;-71
2022/09/26 00:22:21;;;;;;;;;;;12.00;99.90;;;;;;4872981;29;20152;-71
2022/09/26 00:24:46;;;;;;;;;;;12.00;99.90;;;;;;4872838;29;19931;-71
2022/09/26 00:27:12;;;;;;;;;;;12.00;99.90;;;;;;4871724;29;19927;-71
2022/09/26 00:29:38;;;;;;;;;;;12.00;99.90;;;;;;4872914;29;19919;-71
2022/09/26 00:32:03;;;;;;;;;;;11.90;99.90;;;;;;4872939;29;20171;-71
2022/09/26 00:34:29;;;;;;;;;;;11.90;99.90;;;;;;4880033;29;20147;-71
2022/09/26 00:36:55;;;;;;;;;;;11.90;99.90;;;;;;4872371;29;19912;-70
2022/09/26 00:39:20;;;;;;;;;;;11.90;99.90;;;;;;4872746;29;19919;-71
2022/09/26 00:41:46;;;;;;;;;;;11.90;99.90;;;;;;4872836;29;19952;-71
2022/09/26 00:44:37;;;;;;;;;;;11.90;99.90;;;;;;4871810;29;19932;-71
2022/09/26 00:47:03;;;;;;;;;;;11.80;99.90;;;;;;4871060;29;20127;-71
2022/09/26 00:49:33;;;;;;;;;;;11.80;99.90;;;;;;4880656;29;19911;-71
2022/09/26 00:52:00;;;;;;;;;;;11.80;99.90;;;;;;4889804;29;19983;-71
2022/09/26 00:54:26;;;;;;;;;;;11.80;99.90;;;;;;4891187;29;20110;-70
2022/09/26 00:56:52;;;;;;;;;;;11.70;99.90;;;;;;4888890;29;19919;-71
2022/09/26 00:59:28;;;;;;;;;;;11.70;99.90;;;;;;4890240;29;19915;-71
2022/09/26 01:01:54;;;;;;;;;;;11.70;99.90;;;;;;4890117;29;20126;-70
2022/09/26 01:04:20;;;;;;;;;;;11.70;99.90;;;;;;4889463;29;20202;-71
2022/09/26 01:06:46;;;;;;;;;;;11.70;99.90;;;;;;4889423;29;19955;-71
2022/09/26 01:09:12;;;;;;;;;;;11.70;99.90;;;;;;4889626;29;19927;-70
2022/09/26 01:11:39;;;;;;;;;;;11.70;99.90;;;;;;4870565;29;19920;-71
2022/09/26 01:14:06;;;;;;;;;;;11.70;99.90;;;;;;4871115;29;19912;-71
2022/09/26 01:16:32;;;;;;;;;;;11.70;99.90;;;;;;4870729;29;20219;-70
2022/09/26 01:18:59;;;;;;;;;;;11.70;99.90;;;;;;4872091;29;19931;-71
2022/09/26 01:21:53;;;;;;;;;;;11.70;99.90;;;;;;4870529;29;19912;-71
2022/09/26 01:24:35;;;;;;;;;;;11.80;99.90;;;;;;4872014;29;19916;-71
2022/09/26 01:27:28;;;;;;;;;;;11.70;99.90;;;;;;4870312;29;19952;-71
2022/09/26 01:30:03;;;;;;;;;;;11.80;99.90;;;;;;4872000;29;19958;-71
2022/09/26 01:32:49;;;;;;;;;;;11.80;99.90;;;;;;4871199;29;20211;-71
2022/09/26 01:35:34;;;;;;;;;;;11.80;99.90;;;;;;4870856;29;19912;-71
2022/09/26 01:38:02;;;;;;;;;;;11.70;99.90;;;;;;4912980;23;20218;-72
2022/09/26 01:40:55;;;;;;;;;;;11.70;99.90;;;;;;4927554;29;20013;-72
2022/09/26 01:43:40;;;;;;;;;;;11.70;99.90;;;;;;4922256;29;19915;-72
2022/09/26 01:46:06;;;;;;;;;;;11.70;99.90;;;;;;4926424;29;20277;-72
2022/09/26 01:48:33;;;;;;;;;;;11.70;99.90;;;;;;4913282;29;19916;-72
2022/09/26 01:50:59;;;;;;;;;;;11.70;99.90;;;;;;4908178;29;20126;-72
2022/09/26 01:53:30;;;;;;;;;;;11.70;99.90;;;;;;4908448;29;19931;-72
2022/09/26 01:56:02;;;;;;;;;;;11.70;99.90;;;;;;4892651;29;19951;-72
2022/09/26 01:58:57;;;;;;;;;;;11.70;99.90;;;;;;4891946;29;19919;-72
2022/09/26 02:01:24;;;;;;;;;;;11.60;99.90;;;;;;4888823;29;19964;-72
2022/09/26 02:03:59;;;;;;;;;;;11.60;99.90;;;;;;4888673;29;20147;-72
2022/09/26 02:06:32;;;;;;;;;;;11.70;99.90;;;;;;4888425;29;19942;-72
2022/09/26 02:09:00;;;;;;;;;;;11.70;99.90;;;;;;4888417;29;19968;-72
2022/09/26 02:11:26;;;;;;;;;;;11.60;99.90;;;;;;4888401;29;19912;-72
2022/09/26 02:14:02;;;;;;;;;;;11.60;99.90;;;;;;4888542;29;19983;-72
2022/09/26 02:16:35;;;;;;;;;;;11.60;99.90;;;;;;4888254;29;19927;-72
2022/09/26 02:19:14;;;;;;;;;;;11.70;99.90;;;;;;4893435;29;19916;-72
2022/09/26 02:21:40;;;;;;;;;;;11.60;99.90;;;;;;4874265;29;20024;-72
2022/09/26 02:24:05;;;;;;;;;;;11.60;99.90;;;;;;4872541;29;19923;-72
2022/09/26 02:26:32;;;;;;;;;;;11.60;99.90;;;;;;4888103;29;20400;-73
2022/09/26 02:28:58;;;;;;;;;;;11.60;99.90;;;;;;4889089;29;19945;-72
2022/09/26 02:31:25;;;;;;;;;;;11.60;99.90;;;;;;4890858;29;19915;-72
2022/09/26 02:33:52;;;;;;;;;;;11.70;99.90;;;;;;4875359;29;19919;-72
2022/09/26 02:36:18;;;;;;;;;;;11.70;99.90;;;;;;4906166;29;19920;-72
2022/09/26 02:38:44;;;;;;;;;;;11.70;99.90;;;;;;4906575;29;19974;-72
2022/09/26 02:41:27;;;;;;;;;;;11.70;99.90;;;;;;4907768;29;20344;-72
2022/09/26 02:44:05;;;;;;;;;;;11.70;99.90;;;;;;4906695;29;19924;-72
2022/09/26 02:46:37;;;;;;;;;;;11.70;99.90;;;;;;4907447;29;19918;-72
2022/09/26 02:49:24;;;;;;;;;;;11.70;99.90;;;;;;4906637;29;20167;-73
2022/09/26 02:51:53;;;;;;;;;;;11.70;99.90;;;;;;4907358;29;19922;-72
2022/09/26 02:54:34;;;;;;;;;;;11.70;99.90;;;;;;4907581;29;19951;-73
2022/09/26 02:57:22;;;;;;;;;;;11.70;99.90;;;;;;4906326;29;19911;-73
2022/09/26 02:59:52;;;;;;;;;;;11.80;99.90;;;;;;4906538;29;19942;-73
2022/09/26 03:02:20;;;;;;;;;;;11.80;99.90;;;;;;4903304;29;19920;-73
2022/09/26 03:04:48;;;;;;;;;;;11.80;99.90;;;;;;4887348;29;19915;-73
2022/09/26 03:07:19;;;;;;;;;;;11.70;99.90;;;;;;4887430;29;20109;-72
2022/09/26 03:09:44;;;;;;;;;;;11.80;99.90;;;;;;4887683;29;19919;-73
2022/09/26 03:12:10;;;;;;;;;;;11.80;99.90;;;;;;4872271;29;19912;-72
2022/09/26 03:14:37;;;;;;;;;;;11.70;99.90;;;;;;4887698;29;19956;-73
2022/09/26 03:17:03;;;;;;;;;;;11.80;99.90;;;;;;4888354;29;20245;-72
2022/09/26 03:19:38;;;;;;;;;;;11.70;99.90;;;;;;4887623;29;19947;-72
2022/09/26 03:22:04;;;;;;;;;;;11.70;99.90;;;;;;4887465;29;19919;-72
2022/09/26 03:24:30;;;;;;;;;;;11.60;99.90;;;;;;4871839;29;19924;-72
2022/09/26 03:26:56;;;;;;;;;;;11.50;99.90;;;;;;4871860;29;19983;-72
2022/09/26 03:29:22;;;;;;;;;;;11.50;99.90;;;;;;4894157;29;20106;-72
2022/09/26 03:31:49;;;;;;;;;;;11.50;99.90;;;;;;4906230;29;19994;-72
2022/09/26 03:34:15;;;;;;;;;;;11.50;99.90;;;;;;4907250;29;19912;-72
2022/09/26 03:36:41;;;;;;;;;;;11.50;99.90;;;;;;4886110;29;19911;-72
2022/09/26 03:39:06;;;;;;;;;;;11.50;99.90;;;;;;4888223;29;20087;-72
2022/09/26 03:41:33;;;;;;;;;;;11.40;99.90;;;;;;4888500;29;19919;-72
2022/09/26 03:43:59;;;;;;;;;;;11.40;99.90;;;;;;4891327;29;19965;-72
2022/09/26 03:46:24;;;;;;;;;;;11.40;99.90;;;;;;4908537;29;19986;-72
2022/09/26 03:48:50;;;;;;;;;;;11.40;99.90;;;;;;4909786;29;19911;-72
2022/09/26 03:51:16;;;;;;;;;;;11.40;99.90;;;;;;4910318;29;19918;-72
2022/09/26 03:53:42;;;;;;;;;;;11.40;99.90;;;;;;4911061;29;19978;-72
2022/09/26 03:56:08;;;;;;;;;;;11.40;99.90;;;;;;4910491;29;19990;-72
2022/09/26 03:58:34;;;;;;;;;;;11.40;99.90;;;;;;4912067;29;19911;-72
2022/09/26 04:01:06;;;;;;;;;;;11.40;99.90;;;;;;4912119;29;19915;-72
2022/09/26 04:03:36;;;;;;;;;;;11.40;99.90;;;;;;4905972;29;19979;-72
2022/09/26 04:06:02;;;;;;;;;;;11.40;99.90;;;;;;4909016;29;20083;-72
2022/09/26 04:08:28;;;;;;;;;;;11.40;99.90;;;;;;4893819;29;19923;-73
2022/09/26 04:11:04;;;;;;;;;;;11.40;99.90;;;;;;4909475;29;19950;-72
2022/09/26 04:13:29;;;;;;;;;;;11.40;99.90;;;;;;4909522;29;19916;-72
2022/09/26 04:15:56;;;;;;;;;;;11.40;99.90;;;;;;4878161;29;20177;-72
2022/09/26 04:18:22;;;;;;;;;;;11.40;99.90;;;;;;4893589;29;19912;-72
2022/09/26 04:20:47;;;;;;;;;;;11.40;99.90;;;;;;4909045;29;19926;-72
2022/09/26 04:23:13;;;;;;;;;;;11.40;99.90;;;;;;4910199;29;20266;-72
2022/09/26 04:25:39;;;;;;;;;;;11.40;99.90;;;;;;4910235;29;19911;-72
2022/09/26 04:28:04;;;;;;;;;;;11.40;99.90;;;;;;4909825;29;19915;-72
2022/09/26 04:30:30;;;;;;;;;;;11.30;99.90;;;;;;4910235;29;19911;-72
2022/09/26 04:32:56;;;;;;;;;;;11.40;99.90;;;;;;4909925;29;19919;-72
2022/09/26 04:35:24;;;;;;;;;;;11.30;99.90;;;;;;4901644;29;19947;-73
2022/09/26 04:37:49;;;;;;;;;;;11.30;99.90;;;;;;4906287;29;19922;-71
2022/09/26 04:40:15;;;;;;;;;;;11.30;99.90;;;;;;4914470;29;19912;-72
2022/09/26 04:42:41;;;;;;;;;;;11.30;99.90;;;;;;4891285;29;19923;-71
2022/09/26 04:45:07;;;;;;;;;;;11.30;99.90;;;;;;4906605;29;20229;-72
2022/09/26 04:47:33;;;;;;;;;;;11.30;99.90;;;;;;4909445;29;19960;-72
2022/09/26 04:49:58;;;;;;;;;;;11.30;99.90;;;;;;4908399;29;20238;-71
2022/09/26 04:52:25;;;;;;;;;;;11.30;99.90;;;;;;4908658;29;19911;-71
2022/09/26 04:54:51;;;;;;;;;;;11.20;99.90;;;;;;4909213;29;19911;-71
2022/09/26 04:57:16;;;;;;;;;;;11.20;99.90;;;;;;4908879;29;20007;-71
2022/09/26 04:59:42;;;;;;;;;;;11.20;99.90;;;;;;4900141;29;19927;-71
2022/09/26 05:02:08;;;;;;;;;;;11.20;99.90;;;;;;4908220;29;19956;-72
2022/09/26 05:04:34;;;;;;;;;;;11.20;99.90;;;;;;4904864;29;20261;-72
2022/09/26 05:07:00;;;;;;;;;;;11.20;99.90;;;;;;4892796;29;19911;-69
2022/09/26 05:09:26;;;;;;;;;;;11.10;99.90;;;;;;4897293;29;19919;-70
2022/09/26 05:11:51;;;;;;;;;;;11.10;99.90;;;;;;4893111;29;19915;-71
2022/09/26 05:14:17;;;;;;;;;;;11.10;99.90;;;;;;4903532;29;19924;-72
2022/09/26 05:16:46;;;;;;;;;;;11.10;99.90;;;;;;4899835;29;19948;-72
2022/09/26 05:19:11;;;;;;;;;;;11.10;99.90;;;;;;4909116;29;20158;-72
2022/09/26 05:21:37;;;;;;;;;;;11.00;99.90;;;;;;4908432;29;19960;-72
2022/09/26 05:26:48;;;;;;;;;;;11.00;99.90;;;;;;4904085;29;20087;-73
2022/09/26 05:29:14;;;;;;;;;;;11.00;99.90;;;;;;4905397;29;19955;-72
2022/09/26 05:31:40;;;;;;;;;;;11.00;99.90;;;;;;4923517;29;19990;-73
2022/09/26 05:34:09;;;;;;;;;;;11.00;99.90;;;;;;4908778;29;20110;-73
2022/09/26 05:36:34;;;;;;;;;;;11.00;99.90;;;;;;4906604;29;19911;-72
2022/09/26 05:39:00;;;;;;;;;;;11.00;99.90;;;;;;4908294;29;19916;-72
2022/09/26 05:41:32;;;;;;;;;;;11.00;99.90;;;;;;4892052;29;19974;-72
2022/09/26 05:43:58;;;;;;;;;;;11.00;99.90;;;;;;4907682;29;19924;-72
2022/09/26 05:46:24;;;;;;;;;;;11.00;99.90;;;;;;4907077;29;19953;-72
2022/09/26 05:48:50;;;;;;;;;;;10.90;99.90;;;;;;4907404;29;19918;-72
2022/09/26 05:51:17;;;;;;;;;;;10.90;99.90;;;;;;4908337;29;20118;-72
2022/09/26 05:53:44;;;;;;;;;;;10.90;99.90;;;;;;4907679;29;19912;-72
2022/09/26 05:56:10;;;;;;;;;;;10.90;99.90;;;;;;4907341;29;19911;-72
2022/09/26 05:58:37;;;;;;;;;;;10.90;99.90;;;;;;4907286;29;20118;-72
2022/09/26 06:01:13;;;;;;;;;;;11.00;99.90;;;;;;4904058;29;19941;-72
2022/09/26 06:03:43;;;;;;;;;;;11.00;99.90;;;;;;4888947;29;20219;-72
2022/09/26 06:06:11;;;;;;;;;;;11.00;99.90;;;;;;4888037;29;19916;-72
2022/09/26 06:08:37;;;;;;;;;;;10.90;99.90;;;;;;4907154;29;19911;-72
2022/09/26 06:11:13;;;;;;;;;;;11.00;99.90;;;;;;4907998;29;19986;-72
2022/09/26 06:13:40;;;;;;;;;;;11.00;99.90;;;;;;4892467;29;19912;-72
2022/09/26 06:16:07;;;;;;;;;;;10.90;99.90;;;;;;4907505;29;19911;-72
2022/09/26 06:18:34;;;;;;;;;;;10.90;99.90;;;;;;4907102;29;19920;-72
2022/09/26 06:21:03;;;;;;;;;;;11.00;99.90;;;;;;4906895;29;19918;-73
2022/09/26 06:23:30;;;;;;;;;;;10.90;99.90;;;;;;4906788;29;19936;-73
2022/09/26 06:25:55;;;;;;;;;;;11.00;99.90;;;;;;4908009;29;19915;-73
2022/09/26 06:28:21;;;;;;;;;;;11.00;99.90;;;;;;4906732;29;19912;-71
2022/09/26 06:30:46;;;;;;;;;;;11.00;99.90;;;;;;4908564;29;19918;-73
2022/09/26 06:33:12;;;;;;;;;;;11.00;99.90;;;;;;4907609;29;19919;-70
2022/09/26 06:35:38;;;;;;;;;;;11.10;99.90;;;;;;4906334;29;19919;-70
2022/09/26 06:38:04;;;;;;;;;;;11.10;99.90;;;;;;4892873;29;19916;-70
2022/09/26 06:40:30;;;;;;;;;;;11.10;99.90;;;;;;4891214;29;19947;-73
2022/09/26 06:42:56;;;;;;;;;;;11.20;99.90;;;;;;4887155;29;19912;-72
2022/09/26 06:45:22;;;;;;;;;;;11.20;99.90;;;;;;4888012;29;19978;-72
2022/09/26 06:47:48;;;;;;;;;;;11.20;99.90;;;;;;4888264;29;19986;-71
2022/09/26 06:50:14;;;;;;;;;;;11.20;99.90;;;;;;4900807;29;20232;-71
2022/09/26 06:52:41;;;;;;;;;;;11.20;99.90;;;;;;4891138;29;20198;-71
2022/09/26 06:55:08;;;;;;;;;;;11.20;99.90;;;;;;4907254;29;19915;-72
2022/09/26 06:57:41;;;;;;;;;;;11.20;99.90;;;;;;4905639;29;20212;-72
2022/09/26 07:00:12;;;;;;;;;;;11.20;99.90;;;;;;4905538;29;19918;-72
2022/09/26 07:02:37;;;;;;;;;;;11.20;99.90;;;;;;4890310;29;19919;-71
2022/09/26 07:05:04;;;;;;;;;;;11.30;99.90;;;;;;4906590;29;19986;-72
2022/09/26 07:07:31;;;;;;;;;;;11.30;99.90;;;;;;4902811;29;20252;-70
2022/09/26 07:09:56;;;;;;;;;;;11.30;99.90;;;;;;4906386;29;19911;-72
2022/09/26 07:12:23;;;;;;;;;;;11.40;99.90;;;;;;4906334;29;19926;-71
2022/09/26 07:14:50;;;;;;;;;;;11.50;99.90;;;;;;4905863;29;19912;-72
2022/09/26 07:17:16;;;;;;;;;;;11.50;99.90;;;;;;4890257;29;20006;-71
2022/09/26 07:19:42;;;;;;;;;;;11.60;99.90;;;;;;4906262;29;20210;-71
2022/09/26 07:22:08;;;;;;;;;;;11.60;99.90;;;;;;4906157;29;19926;-70
2022/09/26 07:24:34;;;;;;;;;;;11.70;99.90;;;;;;4906615;29;19916;-71
2022/09/26 07:27:00;;;;;;;;;;;11.60;99.90;;;;;;4907057;29;19911;-71
2022/09/26 07:29:26;;;;;;;;;;;11.60;99.90;;;;;;4906795;29;19912;-71
2022/09/26 07:31:52;;;;;;;;;;;11.70;99.90;;;;;;4906132;29;19918;-72
2022/09/26 07:34:18;;;;;;;;;;;11.80;99.90;;;;;;4905977;29;19919;-72
2022/09/26 07:36:46;;;;;;;;;;;11.90;99.90;;;;;;4906718;29;19918;-71
2022/09/26 07:39:11;;;;;;;;;;;12.00;99.90;;;;;;4905788;29;19939;-73
2022/09/26 07:41:37;;;;;;;;;;;12.00;99.90;;;;;;4906092;29;19924;-71
2022/09/26 07:44:03;;;;;;;;;;;12.00;99.90;;;;;;4906115;29;19942;-70
2022/09/26 07:51:59;;;;;;;;;;;12.20;99.90;;;;;;4905823;29;20205;-70
2022/09/26 07:54:25;;;;;;;;;;;12.20;99.90;;;;;;4904714;29;20218;-69
2022/09/26 07:56:52;;;;;;;;;;;12.20;99.90;;;;;;4905104;29;19912;-70
2022/09/26 07:59:17;;;;;;;;;;;12.20;99.90;;;;;;4905583;29;19920;-70
2022/09/26 08:01:44;;;;;;;;;;;12.20;99.90;;;;;;4906461;29;19982;-71
2022/09/26 08:04:10;;;;;;;;;;;12.20;99.90;;;;;;4905970;29;19922;-71
2022/09/26 08:06:36;;;;;;;;;;;12.20;99.90;;;;;;4906377;29;19954;-73
2022/09/26 08:09:02;;;;;;;;;;;12.20;99.90;;;;;;4904079;29;19912;-72
2022/09/26 08:11:27;;;;;;;;;;;12.20;99.90;;;;;;4890583;29;19919;-72
2022/09/26 08:13:54;;;;;;;;;;;12.30;99.90;;;;;;4906933;29;19920;-73
2022/09/26 08:16:22;;;;;;;;;;;12.30;99.90;;;;;;4906960;29;19919;-72
2022/09/26 08:18:48;;;;;;;;;;;12.30;99.90;;;;;;4905797;29;20448;-72
2022/09/26 08:21:14;;;;;;;;;;;12.30;99.90;;;;;;4890102;29;19922;-72
2022/09/26 08:23:40;;;;;;;;;;;12.40;99.90;;;;;;4906267;29;19915;-73
2022/09/26 08:26:06;;;;;;;;;;;12.40;99.90;;;;;;4904994;29;19918;-72
2022/09/26 08:28:35;;;;;;;;;;;12.50;99.90;;;;;;4902450;29;19911;-72
2022/09/26 08:31:04;;;;;;;;;;;12.50;99.90;;;;;;4900515;29;19946;-72
2022/09/26 08:33:33;;;;;;;;;;;12.40;99.90;;;;;;4909263;29;19912;-72
2022/09/26 08:36:06;;;;;;;;;;;12.50;99.90;;;;;;4910070;29;19994;-72
2022/09/26 08:38:32;;;;;;;;;;;12.50;99.90;;;;;;4907268;29;19923;-72
2022/09/26 08:41:15;;;;;;;;;;;12.50;99.90;;;;;;4908786;29;19919;-72
2022/09/26 08:43:55;;;;;;;;;;;12.60;99.90;;;;;;4908800;29;19946;-74
2022/09/26 08:47:06;;;;;;;;;;;12.70;99.90;;;;;;4908667;29;19995;-72
2022/09/26 08:49:43;;;;;;;;;;;12.70;99.90;;;;;;4909058;29;19912;-73
2022/09/26 08:52:25;;;;;;;;;;;12.80;99.90;;;;;;4908438;29;19911;-70
2022/09/26 08:54:51;;;;;;;;;;;12.90;99.90;;;;;;4892583;29;19915;-71
2022/09/26 08:57:32;;;;;;;;;;;12.90;99.90;;;;;;4907912;29;19918;-73
2022/09/26 08:59:58;;;;;;;;;;;13.00;99.90;;;;;;4908164;29;19926;-72
2022/09/26 09:02:39;;;;;;;;;;;13.10;99.90;;;;;;4908158;29;20110;-74
2022/09/26 09:05:10;;;;;;;;;;;13.10;99.90;;;;;;4909319;29;19916;-72
2022/09/26 09:07:36;;;;;;;;;;;13.30;99.90;;;;;;4908045;29;19912;-73
2022/09/26 09:10:06;;;;;;;;;;;13.30;99.90;;;;;;4901943;29;19912;-73
2022/09/26 09:12:38;;;;;;;;;;;13.40;99.90;;;;;;4892962;29;19912;-73
2022/09/26 09:15:27;;;;;;;;;;;13.60;99.90;;;;;;4909245;29;20178;-73
2022/09/26 09:18:08;;;;;;;;;;;13.80;99.90;;;;;;4908291;29;19919;-73
2022/09/26 09:20:50;;;;;;;;;;;13.90;99.90;;;;;;4908888;29;19911;-73
2022/09/26 09:23:33;;;;;;;;;;;14.10;99.90;;;;;;4909938;29;20160;-72
2022/09/26 09:26:14;;;;;;;;;;;14.20;99.90;;;;;;4912061;29;19911;-74
2022/09/26 09:28:52;;;;;;;;;;;14.30;99.90;;;;;;4911649;29;19911;-73
2022/09/26 09:31:18;;;;;;;;;;;14.30;99.90;;;;;;4909809;29;19943;-74
2022/09/26 09:33:46;;;;;;;;;;;14.40;99.90;;;;;;4908422;29;19911;-73
2022/09/26 09:36:24;;;;;;;;;;;14.50;99.90;;;;;;4877065;29;19912;-73
2022/09/26 09:38:50;;;;;;;;;;;14.60;99.90;;;;;;4892520;29;20207;-73
2022/09/26 09:41:23;;;;;;;;;;;14.70;99.90;;;;;;4906708;29;19987;-73
2022/09/26 09:43:54;;;;;;;;;;;14.80;99.90;;;;;;4909095;29;19930;-73
2022/09/26 09:46:27;;;;;;;;;;;14.80;99.90;;;;;;4891119;29;20269;-73
2022/09/26 09:49:19;;;;;;;;;;;14.70;99.90;;;;;;4892747;29;19947;-73
2022/09/26 09:52:08;;;;;;;;;;;14.70;99.90;;;;;;4891665;29;19919;-73
2022/09/26 09:54:52;;;;;;;;;;;14.70;99.90;;;;;;4892800;29;20206;-73
2022/09/26 09:57:39;;;;;;;;;;;14.70;99.90;;;;;;4908037;29;19920;-73
2022/09/26 10:00:14;;;;;;;;;;;14.70;99.90;;;;;;4908544;29;19959;-73
2022/09/26 10:03:01;;;;;;;;;;;14.70;99.90;;;;;;4907737;29;20166;-73
2022/09/26 10:05:46;;;;;;;;;;;14.80;99.90;;;;;;4908248;29;19982;-73
2022/09/26 10:08:30;;;;;;;;;;;14.90;99.90;;;;;;4907372;29;19918;-73
2022/09/26 10:11:15;;;;;;;;;;;14.90;99.90;;;;;;4896052;29;19936;-73
2022/09/26 10:13:42;;;;;;;;;;;15.10;99.90;;;;;;4918119;29;19911;-73
2022/09/26 10:16:09;;;;;;;;;;;15.30;99.90;;;;;;4917938;29;19919;-73
2022/09/26 10:19:03;;;;;;;;;;;15.40;99.90;;;;;;4917193;29;19912;-72
2022/09/26 10:21:33;;;;;;;;;;;15.40;99.90;;;;;;4913987;29;19911;-73
2022/09/26 10:24:01;;;;;;;;;;;15.40;99.90;;;;;;4894434;29;19994;-72
2022/09/26 10:26:33;;;;;;;;;;;15.50;99.90;;;;;;4882593;29;19928;-72
2022/09/26 10:29:03;;;;;;;;;;;15.60;99.90;;;;;;4898949;29;19975;-72
2022/09/26 10:31:37;;;;;;;;;;;15.60;99.90;;;;;;4881077;29;19990;-72
2022/09/26 10:34:17;;;;;;;;;;;15.70;99.90;;;;;;4891557;29;19927;-72
2022/09/26 10:36:43;;;;;;;;;;;15.80;99.90;;;;;;4883628;29;19957;-72
2022/09/26 10:42:00;;;;;;;;;;;16.20;99.90;;;;;;4895237;29;20458;-72
2022/09/26 10:44:29;;;;;;;;;;;16.40;99.90;;;;;;4896407;29;19916;-72
2022/09/26 10:46:56;;;;;;;;;;;16.60;99.90;;;;;;4896948;29;20137;-72
2022/09/26 10:49:33;;;;;;;;;;;16.90;99.90;;;;;;4896792;29;19987;-72
2022/09/26 10:52:22;;;;;;;;;;;16.90;99.90;;;;;;4887811;29;19918;-72
2022/09/26 10:54:54;;;;;;;;;;;17.10;99.90;;;;;;4900893;29;19923;-72
2022/09/26 10:57:44;;;;;;;;;;;17.20;99.90;;;;;;4905962;29;19911;-72
2022/09/26 11:00:16;;;;;;;;;;;17.20;99.90;;;;;;4906653;29;19918;-72
2022/09/26 11:02:45;;;;;;;;;;;17.10;99.90;;;;;;4891271;29;19918;-72
2022/09/26 11:07:55;;;;;;;;;;;17.20;99.90;;;;;;4874391;29;19919;-72
2022/09/26 11:10:26;;;;;;;;;;;17.20;99.90;;;;;;4887355;29;19911;-72
2022/09/26 11:13:38;;;;;;;;;;;17.10;99.90;;;;;;4888834;29;19947;-72
2022/09/26 11:16:11;;;;;;;;;;;17.10;99.90;;;;;;4882966;29;20206;-72
2022/09/26 11:18:48;;;;;;;;;;;17.40;99.90;;;;;;4887571;29;19912;-72
2022/09/26 11:21:24;;;;;;;;;;;17.50;99.90;;;;;;4887590;29;19912;-72
2022/09/26 11:24:23;;;;;;;;;;;17.70;99.90;;;;;;4891939;29;19923;-72
2022/09/26 11:27:03;;;;;;;;;;;18.00;99.90;;;;;;4905800;29;20322;-72
2022/09/26 11:30:06;;;;;;;;;;;18.40;99.90;;;;;;4902818;29;19915;-72
2022/09/26 11:32:39;;;;;;;;;;;18.90;99.90;;;;;;4886784;29;19990;-73
2022/09/26 11:35:07;;;;;;;;;;;19.40;99.90;;;;;;4887651;29;19912;-72
2022/09/26 11:37:39;;;;;;;;;;;19.50;99.90;;;;;;4883057;29;19969;-71
2022/09/26 11:40:27;;;;;;;;;;;19.80;99.90;;;;;;4906338;29;20410;-71
2022/09/26 11:43:05;;;;;;;;;;;20.10;99.90;;;;;;4902163;29;19987;-70
2022/09/26 11:45:33;;;;;;;;;;;20.10;99.90;;;;;;4888138;29;19916;-70
2022/09/26 11:48:05;;;;;;;;;;;20.00;99.90;;;;;;4901691;29;19919;-70
2022/09/26 11:50:40;;;;;;;;;;;19.80;99.90;;;;;;4905336;29;20117;-69
2022/09/26 11:53:08;;;;;;;;;;;19.50;99.90;;;;;;4905696;29;19943;-72
2022/09/26 11:56:01;;;;;;;;;;;19.40;99.90;;;;;;4906572;29;19937;-72
2022/09/26 11:58:26;;;;;;;;;;;19.40;99.90;;;;;;4901503;29;19912;-72
2022/09/26 12:01:04;;;;;;;;;;;19.20;99.90;;;;;;4888287;29;19963;-71
2022/09/26 12:03:52;;;;;;;;;;;18.80;99.90;;;;;;4888054;29;20003;-73
2022/09/26 12:06:44;;;;;;;;;;;18.60;99.90;;;;;;4890946;29;20334;-72
2022/09/26 12:09:12;;;;;;;;;;;18.70;99.90;;;;;;4912046;29;20109;-72
2022/09/26 12:12:18;;;;;;;;;;;18.80;99.90;;;;;;4910323;29;19920;-72
2022/09/26 12:15:13;;;;;;;;;;;18.80;99.90;;;;;;4896527;29;19911;-73
2022/09/26 12:18:01;;;;;;;;;;;18.70;99.90;;;;;;4908989;29;19927;-72
2022/09/26 12:20:55;;;;;;;;;;;18.90;99.90;;;;;;4909261;29;19912;-73
2022/09/26 12:23:38;;;;;;;;;;;18.70;99.90;;;;;;4909860;29;19912;-72
2022/09/26 12:26:21;;;;;;;;;;;18.60;99.90;;;;;;4909262;29;19934;-72
2022/09/26 12:29:18;;;;;;;;;;;18.80;99.90;;;;;;4909104;29;19911;-72
2022/09/26 12:31:53;;;;;;;;;;;18.90;99.90;;;;;;4909352;29;19919;-73
2022/09/26 12:34:38;;;;;;;;;;;19.30;99.90;;;;;;4910291;29;19950;-73
2022/09/26 12:37:22;;;;;;;;;;;20.40;99.90;;;;;;4906130;29;20151;-72
2022/09/26 12:40:08;;;;;;;;;;;21.00;98.10;;;;;;4910382;29;19919;-73
2022/09/26 12:43:12;;;;;;;;;;;20.50;99.90;;;;;;4909504;29;20185;-73
2022/09/26 12:46:15;;;;;;;;;;;20.10;99.90;;;;;;4909916;29;19930;-71
2022/09/26 12:48:45;;;;;;;;;;;19.40;99.90;;;;;;4909627;29;19982;-72
2022/09/26 12:51:28;;;;;;;;;;;18.80;99.90;;;;;;4908924;29;19911;-73
2022/09/26 12:54:15;;;;;;;;;;;18.30;99.90;;;;;;4909000;29;19911;-72
2022/09/26 12:56:47;;;;;;;;;;;18.00;99.90;;;;;;4909978;29;19918;-72
2022/09/26 12:59:51;;;;;;;;;;;17.70;99.90;;;;;;4908679;29;20002;-72
2022/09/26 13:02:31;;;;;;;;;;;17.50;99.90;;;;;;4890834;29;19939;-72
2022/09/26 13:05:26;;;;;;;;;;;17.10;99.90;;;;;;4890193;29;19919;-72
2022/09/26 13:08:17;;;;;;;;;;;16.90;99.90;;;;;;4899390;29;19934;-71
2022/09/26 13:10:47;;;;;;;;;;;16.70;99.90;;;;;;4908424;29;19935;-72
2022/09/26 13:13:44;;;;;;;;;;;16.50;99.90;;;;;;4892886;29;19919;-71
2022/09/26 13:16:26;;;;;;;;;;;16.50;99.90;;;;;;4911404;29;19950;-72
2022/09/26 13:19:15;;;;;;;;;;;16.40;99.90;;;;;;4893604;29;19934;-73
2022/09/26 13:21:44;;;;;;;;;;;16.40;99.90;;;;;;4892790;29;20088;-72
2022/09/26 13:24:18;;;;;;;;;;;16.40;99.90;;;;;;4892725;29;19986;-72
2022/09/26 13:26:47;;;;;;;;;;;16.40;99.90;;;;;;4892796;29;19915;-73
2022/09/26 13:29:16;;;;;;;;;;;16.40;99.90;;;;;;4892179;29;19920;-72
2022/09/26 13:31:44;;;;;;;;;;;16.50;99.90;;;;;;4892531;29;19982;-72
2022/09/26 13:34:12;;;;;;;;;;;17.40;99.90;;;;;;4892675;29;19983;-72
2022/09/26 13:36:37;;;;;;;;;;;19.30;99.90;;;;;;4907417;29;20268;-73
2022/09/26 13:39:12;;;;;;;;;;;20.70;99.90;;;;;;4891030;29;19949;-72
2022/09/26 13:41:48;;;;;;;;;;;21.00;97.00;;;;;;4890409;29;20220;-73
2022/09/26 13:44:38;;;;;;;;;;;20.80;99.20;;;;;;4901004;29;19920;-72
2022/09/26 13:47:26;;;;;;;;;;;20.00;95.00;;;;;;4889738;29;19980;-72
2022/09/26 13:50:18;;;;;;;;;;;19.20;99.90;;;;;;4896682;29;19912;-72
2022/09/26 13:52:59;;;;;;;;;;;18.70;99.90;;;;;;4907584;29;19951;-72
2022/09/26 13:55:28;;;;;;;;;;;18.30;99.90;;;;;;4908811;29;19982;-72
2022/09/26 13:58:02;;;;;;;;;;;18.10;99.90;;;;;;4891167;29;19920;-73
2022/09/26 14:00:29;;;;;;;;;;;17.80;99.90;;;;;;4908516;29;19954;-72
2022/09/26 14:03:12;;;;;;;;;;;17.70;99.90;;;;;;4908638;29;19911;-71
2022/09/26 14:05:41;;;;;;;;;;;17.50;99.90;;;;;;4907575;29;19924;-72
2022/09/26 14:11:29;;;;;;;;;;;17.20;99.90;;;;;;4908401;29;19951;-72
2022/09/26 14:14:20;;;;;;;;;;;17.00;99.90;;;;;;4902041;29;19911;-72
2022/09/26 14:16:45;;;;;;;;;;;16.90;99.90;;;;;;4888601;29;19916;-72
2022/09/26 14:19:36;;;;;;;;;;;17.00;99.90;;;;;;4903083;29;19978;-73
2022/09/26 14:22:19;;;;;;;;;;;16.90;99.90;;;;;;4907470;29;19982;-73
2022/09/26 14:24:46;;;;;;;;;;;16.80;99.90;;;;;;4907135;29;20143;-73
2022/09/26 14:27:11;;;;;;;;;;;16.70;99.90;;;;;;4906772;29;19919;-72
2022/09/26 14:29:37;;;;;;;;;;;16.80;99.90;;;;;;4907838;29;20190;-73
2022/09/26 14:32:07;;;;;;;;;;;16.80;99.90;;;;;;4907192;29;19960;-73
2022/09/26 14:34:55;;;;;;;;;;;16.80;99.90;;;;;;4907116;29;19927;-72
2022/09/26 14:37:24;;;;;;;;;;;17.60;99.90;;;;;;4902696;29;19915;-73
2022/09/26 14:39:58;;;;;;;;;;;19.10;99.90;;;;;;4905851;29;19911;-73
2022/09/26 14:42:27;;;;;;;;;;;19.80;92.10;;;;;;4908319;29;19960;-73
2022/09/26 14:45:06;;;;;;;;;;;19.80;91.20;;;;;;4906048;29;19990;-73
2022/09/26 14:47:49;;;;;;;;;;;20.80;90.60;;;;;;4892361;29;19911;-73
2022/09/26 14:50:26;;;;;;;;;;;22.30;75.60;;;;;;4891383;29;19986;-71
2022/09/26 14:52:53;;;;;;;;;;;23.90;68.30;;;;;;4906765;29;19934;-74
2022/09/26 14:55:19;;;;;;;;;;;25.20;59.30;;;;;;4906517;29;19963;-73
2022/09/26 14:57:45;;;;;;;;;;;26.30;56.30;;;;;;4890501;29;19947;-73
2022/09/26 15:00:36;;;;;;;;;;;25.30;56.10;;;;;;4906517;29;20210;-73
2022/09/26 15:03:04;;;;;;;;;;;24.10;60.70;;;;;;4906247;29;19978;-73